Time;durP1;ratioP1;P1;durP2;ratioP2;P2;SDS_P1;SDS_P2;PMS_P1;PMS_P2;Temp;Humidity;BMP_temperature;BMP_pressure;BME280_temperature;BME280_humidity;BME280_pressure;Samples;Min_cycle;Max_cycle;Signal;HPM_P1;HPM_P2
2022/09/19 00:00:40;;;;;;;;;6.00;5.33;;;;;13.26;63.56;101661.50;5049256;27;45327;-78
2022/09/19 00:03:06;;;;;;;;;4.33;4.33;;;;;13.19;63.47;101648.00;5047298;27;46374;-78
2022/09/19 00:05:32;;;;;;;;;5.33;5.33;;;;;13.26;63.81;101670.34;5069170;27;45221;-78
2022/09/19 00:07:58;;;;;;;;;7.33;5.33;;;;;13.17;63.47;101658.00;5056538;28;45234;-78
2022/09/19 00:10:23;;;;;;;;;7.33;5.67;;;;;13.25;63.76;101667.81;5046963;27;45884;-78
2022/09/19 00:12:48;;;;;;;;;5.33;5.33;;;;;13.21;63.97;101662.00;5087645;27;52805;-78
2022/09/19 00:15:13;;;;;;;;;5.00;4.33;;;;;13.23;64.04;101665.34;5049976;27;45949;-78
2022/09/19 00:17:39;;;;;;;;;6.33;6.33;;;;;13.26;64.38;101672.19;5068560;27;45614;-78
2022/09/19 00:20:06;;;;;;;;;4.33;4.33;;;;;13.23;64.22;101664.50;5066780;27;45376;-78
2022/09/19 00:22:32;;;;;;;;;3.67;3.67;;;;;13.25;64.17;101665.16;5037300;28;48021;-78
2022/09/19 00:24:57;;;;;;;;;6.00;5.00;;;;;13.26;64.58;101664.19;5066663;28;45328;-78
2022/09/19 00:27:25;;;;;;;;;4.00;4.00;;;;;13.24;64.50;101661.69;5049837;27;45288;-78
2022/09/19 00:29:52;;;;;;;;;5.33;5.33;;;;;13.30;64.78;101673.50;5069873;27;45160;-78
2022/09/19 00:32:20;;;;;;;;;5.00;5.00;;;;;13.30;64.98;101675.34;5053712;28;45593;-78
2022/09/19 00:34:48;;;;;;;;;6.00;4.00;;;;;13.24;65.24;101676.84;5059025;27;46176;-78
2022/09/19 00:37:16;;;;;;;;;4.33;4.33;;;;;13.20;65.24;101668.34;5038041;27;45394;-78
2022/09/19 00:39:42;;;;;;;;;4.00;3.00;;;;;13.19;65.38;101671.16;5065207;27;45247;-78
2022/09/19 00:42:17;;;;;;;;;6.67;6.00;;;;;13.20;65.29;101671.00;5045067;28;45728;-78
2022/09/19 00:44:42;;;;;;;;;3.33;3.33;;;;;13.21;65.34;101679.84;5060067;27;45401;-77
2022/09/19 00:47:12;;;;;;;;;5.00;5.00;;;;;13.21;65.36;101680.69;5036000;28;45236;-78
2022/09/19 00:49:42;;;;;;;;;5.33;3.67;;;;;13.10;65.73;101667.69;5068371;27;45379;-77
2022/09/19 00:52:15;;;;;;;;;5.33;4.67;;;;;13.10;65.45;101668.53;5047393;28;47290;-78
2022/09/19 00:54:44;;;;;;;;;3.33;3.33;;;;;13.17;66.01;101687.34;5047727;27;45228;-78
2022/09/19 00:57:16;;;;;;;;;5.33;3.67;;;;;13.14;66.03;101687.69;5064505;28;45370;-78
2022/09/19 00:59:46;;;;;;;;;5.33;4.00;;;;;13.11;65.52;101677.38;5063416;27;45731;-78
2022/09/19 01:02:12;;;;;;;;;3.67;3.67;;;;;13.04;65.94;101673.69;5032636;27;48362;-78
2022/09/19 01:04:40;;;;;;;;;2.67;2.67;;;;;13.08;66.34;101675.03;5053362;28;45292;-78
2022/09/19 01:07:20;;;;;;;;;3.67;3.67;;;;;13.06;66.59;101677.03;5065467;27;45494;-78
2022/09/19 01:09:57;;;;;;;;;5.00;5.00;;;;;13.11;66.52;101678.19;5046761;28;46218;-78
2022/09/19 01:13:09;;;;;;;;;3.00;3.00;;;;;13.07;66.49;101676.03;5046893;27;47579;-77
2022/09/19 01:15:59;;;;;;;;;3.33;3.33;;;;;13.07;66.71;101684.88;5064159;27;45337;-78
2022/09/19 01:18:33;;;;;;;;;7.33;5.00;;;;;13.03;66.83;101680.88;5040343;28;45169;-78
2022/09/19 01:24:20;;;;;;;;;3.67;3.67;;;;;13.02;66.93;101684.53;5061622;27;45208;-78
2022/09/19 01:27:18;;;;;;;;;4.67;4.67;;;;;12.96;66.78;101678.03;5060256;28;45322;-78
2022/09/19 01:30:02;;;;;;;;;5.00;4.00;;;;;12.95;66.87;101686.19;5045578;27;45407;-78
2022/09/19 01:32:34;;;;;;;;;4.00;4.00;;;;;12.91;67.30;101687.53;5043352;27;47016;-78
2022/09/19 01:35:05;;;;;;;;;3.00;3.00;;;;;12.90;67.43;101691.22;5065130;27;45409;-78
2022/09/19 01:37:35;;;;;;;;;4.00;4.00;;;;;12.86;67.94;101688.03;5065362;27;45301;-78
2022/09/19 01:40:05;;;;;;;;;3.67;3.67;;;;;12.87;68.19;101700.41;5068277;27;45258;-79
2022/09/19 01:42:30;;;;;;;;;3.00;3.00;;;;;12.73;67.81;101673.38;5053062;28;45251;-78
2022/09/19 01:44:56;;;;;;;;;5.00;4.33;;;;;12.82;67.70;101682.22;5051221;27;45335;-78
2022/09/19 01:48:16;;;;;;;;;3.67;3.67;;;;;12.81;67.90;101687.72;5066833;27;45370;-78
2022/09/19 01:50:52;;;;;;;;;3.00;3.00;;;;;12.73;67.72;101686.72;5046194;27;45285;-78
2022/09/19 01:53:52;;;;;;;;;3.00;3.00;;;;;12.71;67.77;101683.38;5065218;27;45503;-78
2022/09/19 01:56:58;;;;;;;;;6.00;5.00;;;;;12.69;68.08;101696.03;5067309;27;45506;-78
2022/09/19 01:59:27;;;;;;;;;4.00;4.00;;;;;12.69;67.64;101693.34;5028136;28;45354;-78
2022/09/19 02:02:07;;;;;;;;;3.33;3.33;;;;;12.63;68.56;101688.66;5052434;28;45312;-78
2022/09/19 02:04:41;;;;;;;;;5.00;3.67;;;;;12.58;68.12;101685.69;5063142;28;47543;-78
2022/09/19 02:07:12;;;;;;;;;3.00;3.00;;;;;12.58;68.26;101696.34;5052471;27;47270;-78
2022/09/19 02:09:48;;;;;;;;;5.67;3.67;;;;;12.56;68.75;101696.50;5048491;27;45344;-78
2022/09/19 02:12:16;;;;;;;;;5.33;4.33;;;;;12.55;68.89;101700.19;5047181;27;45386;-78
2022/09/19 02:14:52;;;;;;;;;5.67;5.00;;;;;12.54;69.04;101700.34;5063510;27;46094;-78
2022/09/19 02:17:26;;;;;;;;;3.00;3.00;;;;;12.52;68.97;101705.00;5041176;27;48298;-78
2022/09/19 02:20:02;;;;;;;;;2.67;2.67;;;;;12.45;69.16;101694.97;5038574;27;45675;-78
2022/09/19 02:22:33;;;;;;;;;3.00;3.00;;;;;12.44;69.21;101690.66;5024843;27;45327;-79
2022/09/19 02:25:03;;;;;;;;;2.00;2.00;;;;;12.49;69.41;101703.50;5035900;28;47013;-78
2022/09/19 02:28:08;;;;;;;;;4.00;4.00;;;;;12.40;69.28;101696.47;5059877;27;47674;-78
2022/09/19 02:30:35;;;;;;;;;4.00;4.00;;;;;12.41;69.28;101701.66;5047777;27;45455;-78
2022/09/19 02:33:04;;;;;;;;;3.67;3.67;;;;;12.36;69.54;101701.28;5046865;27;45408;-78
2022/09/19 02:35:40;;;;;;;;;2.00;2.00;;;;;12.28;69.55;101691.47;5048568;28;45438;-78
2022/09/19 02:38:36;;;;;;;;;4.33;3.00;;;;;12.36;69.54;101703.94;5048129;27;47437;-78
2022/09/19 02:41:10;;;;;;;;;4.00;3.00;;;;;12.38;69.62;101701.97;5047805;27;45309;-78
2022/09/19 02:43:46;;;;;;;;;4.33;3.67;;;;;12.28;69.56;101690.63;5038418;28;45436;-78
2022/09/19 02:46:38;;;;;;;;;4.67;4.67;;;;;12.25;69.62;101695.25;5042624;28;46487;-78
2022/09/19 02:49:29;;;;;;;;;4.00;4.00;;;;;12.22;69.32;101695.56;5047372;27;47908;-78
2022/09/19 02:52:00;;;;;;;;;4.33;4.33;;;;;12.16;69.53;101703.41;5042297;27;45358;-78
2022/09/19 02:54:32;;;;;;;;;4.00;4.00;;;;;12.11;69.87;101696.72;5040032;28;45292;-78
2022/09/19 02:57:03;;;;;;;;;6.00;4.00;;;;;12.05;69.77;101700.00;5033885;27;45320;-78
2022/09/19 02:59:34;;;;;;;;;5.33;5.33;;;;;11.97;70.19;101706.13;5045750;27;46128;-78
2022/09/19 03:02:06;;;;;;;;;5.33;4.00;;;;;11.98;70.27;101707.78;5033150;27;45354;-78
2022/09/19 03:04:38;;;;;;;;;6.33;5.00;;;;;11.92;70.41;101703.13;5047901;27;45264;-78
2022/09/19 03:07:14;;;;;;;;;4.00;4.00;;;;;11.92;70.58;101711.13;5047839;27;45302;-78
2022/09/19 03:09:44;;;;;;;;;6.00;6.00;;;;;11.94;70.66;101710.94;5047568;28;46374;-78
2022/09/19 03:12:25;;;;;;;;;4.00;4.00;;;;;11.90;70.77;101715.75;5042140;27;45173;-79
2022/09/19 03:14:55;;;;;;;;;4.00;3.00;;;;;11.90;70.63;101715.75;5036336;27;45357;-78
2022/09/19 03:17:27;;;;;;;;;4.00;4.00;;;;;11.84;70.58;101708.41;5040123;27;46049;-78
2022/09/19 03:19:52;;;;;;;;;4.00;4.00;;;;;11.84;70.25;101713.72;5030594;27;47431;-78
2022/09/19 03:22:18;;;;;;;;;6.00;6.00;;;;;11.82;70.79;101707.75;5045013;27;45862;-78
2022/09/19 03:24:43;;;;;;;;;4.67;4.00;;;;;11.80;70.61;101709.72;5058325;27;45366;-78
2022/09/19 03:27:08;;;;;;;;;4.33;4.33;;;;;11.71;71.17;101701.66;5041980;27;47407;-78
2022/09/19 03:29:35;;;;;;;;;3.67;3.67;;;;;11.71;70.96;101707.00;5046546;27;47118;-78
2022/09/19 03:32:01;;;;;;;;;5.67;5.67;;;;;11.68;70.96;101712.66;5060017;27;45345;-78
2022/09/19 03:34:26;;;;;;;;;5.67;4.33;;;;;11.66;71.00;101700.47;5040966;27;45222;-78
2022/09/19 03:36:51;;;;;;;;;5.33;5.33;;;;;11.69;71.07;101705.47;5045916;27;46785;-78
2022/09/19 03:39:17;;;;;;;;;5.00;5.00;;;;;11.67;70.95;101705.63;5044675;27;47126;-78
2022/09/19 03:41:43;;;;;;;;;4.00;4.00;;;;;11.67;71.30;101710.16;5046780;27;45248;-78
2022/09/19 03:44:08;;;;;;;;;4.67;4.67;;;;;11.64;71.38;101705.94;5045874;27;45291;-78
2022/09/19 03:46:35;;;;;;;;;4.00;4.00;;;;;11.64;71.07;101705.94;5028815;27;45688;-78
2022/09/19 03:49:02;;;;;;;;;6.33;5.00;;;;;11.61;71.11;101712.44;5042838;27;47087;-78
2022/09/19 03:51:30;;;;;;;;;5.00;5.00;;;;;11.58;71.06;101714.56;5039363;27;45324;-78
2022/09/19 03:53:55;;;;;;;;;4.00;4.00;;;;;11.52;70.83;101716.03;5023274;27;45246;-78
2022/09/19 03:56:20;;;;;;;;;4.00;4.00;;;;;11.54;70.81;101721.19;5023390;28;45425;-78
2022/09/19 03:58:46;;;;;;;;;4.67;3.00;;;;;11.49;71.04;101711.88;5026835;28;46919;-78
2022/09/19 04:01:15;;;;;;;;;6.00;6.00;;;;;11.52;71.37;101723.19;5040538;27;45335;-78
2022/09/19 04:03:41;;;;;;;;;6.00;6.00;;;;;11.51;71.06;101722.34;5044274;27;45384;-79
2022/09/19 04:06:08;;;;;;;;;5.67;5.00;;;;;11.48;71.18;101720.84;5042728;27;45460;-78
2022/09/19 04:08:34;;;;;;;;;6.00;6.00;;;;;11.44;70.97;101721.31;5030690;27;45441;-78
2022/09/19 04:11:00;;;;;;;;;4.33;4.33;;;;;11.41;70.92;101722.47;5041741;27;45577;-78
2022/09/19 04:13:27;;;;;;;;;4.00;4.00;;;;;11.36;70.78;101722.09;5041123;27;45810;-78
2022/09/19 04:15:53;;;;;;;;;6.33;5.00;;;;;11.32;70.83;101726.06;5042094;27;46102;-78
2022/09/19 04:18:19;;;;;;;;;6.00;6.00;;;;;11.28;71.24;101733.50;5035517;27;47880;-79
2022/09/19 04:20:46;;;;;;;;;5.00;5.00;;;;;11.22;71.30;101732.28;5029890;27;45174;-78
2022/09/19 04:23:16;;;;;;;;;6.33;5.00;;;;;11.25;71.11;101739.13;5041758;28;45284;-78
2022/09/19 04:25:44;;;;;;;;;5.67;5.33;;;;;11.23;71.11;101741.94;5044365;27;45161;-78
2022/09/19 04:28:11;;;;;;;;;7.67;6.33;;;;;11.20;71.21;101747.56;5034104;27;47479;-78
2022/09/19 04:30:40;;;;;;;;;7.00;6.00;;;;;11.16;71.06;101740.88;5020301;27;45506;-78
2022/09/19 04:33:08;;;;;;;;;4.00;4.00;;;;;11.13;71.25;101754.50;5054626;27;45268;-78
2022/09/19 04:35:35;;;;;;;;;4.33;4.33;;;;;11.16;71.14;101748.88;5083153;27;45408;-78
2022/09/19 04:38:11;;;;;;;;;6.00;6.00;;;;;11.12;71.46;101750.19;5044016;27;47272;-78
2022/09/19 04:40:41;;;;;;;;;5.00;5.00;;;;;11.10;71.33;101750.31;5032166;27;46107;-77
2022/09/19 04:43:11;;;;;;;;;5.00;5.00;;;;;11.02;71.72;101739.63;5039947;27;45294;-78
2022/09/19 04:45:39;;;;;;;;;7.33;6.33;;;;;11.06;71.64;101751.63;5039113;28;46169;-78
2022/09/19 04:48:06;;;;;;;;;8.67;8.67;;;;;11.03;71.90;101751.09;5038601;28;45269;-78
2022/09/19 04:50:33;;;;;;;;;5.00;5.00;;;;;10.89;72.02;101737.31;5029882;27;45277;-78
2022/09/19 04:52:58;;;;;;;;;6.00;6.00;;;;;10.91;72.18;101746.00;5026614;27;45475;-78
2022/09/19 04:55:25;;;;;;;;;5.33;5.33;;;;;10.96;72.03;101751.69;5030721;27;45362;-78
2022/09/19 04:57:51;;;;;;;;;6.00;5.33;;;;;10.92;72.24;101755.66;5040435;27;45369;-78
2022/09/19 05:00:36;;;;;;;;;8.67;6.67;;;;;10.86;72.33;101750.94;5022283;27;45326;-78
2022/09/19 05:03:07;;;;;;;;;5.00;5.00;;;;;10.83;72.29;101752.06;5036138;28;45276;-78
2022/09/19 05:05:34;;;;;;;;;6.00;5.67;;;;;10.81;72.23;101745.25;5026616;27;45245;-78
2022/09/19 05:08:00;;;;;;;;;6.67;6.00;;;;;10.84;72.38;101756.41;5040846;27;45655;-78
2022/09/19 05:10:25;;;;;;;;;8.67;7.67;;;;;10.86;72.73;101761.56;5063258;27;45333;-78
2022/09/19 05:12:51;;;;;;;;;8.00;8.00;;;;;10.80;72.61;101751.53;5033247;27;45606;-78
2022/09/19 05:15:16;;;;;;;;;7.00;7.00;;;;;10.82;72.85;101757.53;5040088;27;47086;-78
2022/09/19 05:17:42;;;;;;;;;7.00;7.00;;;;;10.81;73.11;101759.34;5031925;27;45379;-77
2022/09/19 05:20:08;;;;;;;;;8.67;8.67;;;;;10.77;73.09;101759.84;5009345;27;45318;-77
2022/09/19 05:22:33;;;;;;;;;8.00;8.00;;;;;10.72;72.94;101752.31;5003772;27;45597;-79
2022/09/19 05:25:03;;;;;;;;;6.33;6.33;;;;;10.72;73.25;101760.28;5014097;27;47779;-78
2022/09/19 05:27:31;;;;;;;;;8.33;8.00;;;;;10.66;73.39;101751.09;5024711;27;47280;-78
2022/09/19 05:29:58;;;;;;;;;7.00;7.00;;;;;10.71;73.43;101764.75;5031651;27;45416;-77
2022/09/19 05:32:24;;;;;;;;;9.33;7.67;;;;;10.64;73.49;101762.84;5016427;27;45370;-78
2022/09/19 05:34:49;;;;;;;;;9.00;8.00;;;;;10.63;73.45;101766.50;5031015;27;45305;-78
2022/09/19 05:37:14;;;;;;;;;6.00;5.67;;;;;10.59;73.61;101764.13;5011059;28;47141;-78
2022/09/19 05:39:40;;;;;;;;;7.00;7.00;;;;;10.61;73.68;101769.28;5021395;27;45276;-78
2022/09/19 05:42:05;;;;;;;;;8.00;8.00;;;;;10.57;73.91;101765.25;5019323;27;45344;-79
2022/09/19 05:44:31;;;;;;;;;7.33;7.33;;;;;10.58;74.00;101762.47;5042060;27;45372;-78
2022/09/19 05:46:57;;;;;;;;;10.00;8.00;;;;;10.57;74.40;101770.59;5005241;27;47978;-78
2022/09/19 05:49:22;;;;;;;;;8.00;8.00;;;;;10.62;74.12;101775.47;5035942;27;45364;-78
2022/09/19 05:51:47;;;;;;;;;9.00;8.00;;;;;10.60;74.04;101772.94;5008297;27;45263;-79
2022/09/19 05:54:13;;;;;;;;;7.67;7.00;;;;;10.63;74.11;101788.59;5020343;27;46397;-79
2022/09/19 05:56:38;;;;;;;;;11.00;10.00;;;;;10.65;73.91;101786.63;5019726;27;45276;-79
2022/09/19 05:59:03;;;;;;;;;7.00;7.00;;;;;10.63;74.06;101777.13;5018344;27;45214;-79
2022/09/19 06:01:29;;;;;;;;;8.67;7.67;;;;;10.67;74.19;101786.47;5015230;27;45270;-79
2022/09/19 06:03:54;;;;;;;;;11.00;10.00;;;;;10.68;74.08;101783.66;5007112;27;47367;-79
2022/09/19 06:06:20;;;;;;;;;12.33;11.67;;;;;10.61;74.28;101771.94;5000981;27;47240;-78
2022/09/19 06:08:47;;;;;;;;;11.00;11.00;;;;;10.68;74.81;101780.16;5004679;27;45496;-81
2022/09/19 06:11:14;;;;;;;;;15.00;12.00;;;;;10.69;74.26;101795.97;5086782;27;45438;-79
2022/09/19 06:16:24;;;;;;;;;9.00;8.00;;;;;10.68;74.33;101806.75;5024364;27;45374;-79
2022/09/19 06:18:49;;;;;;;;;13.00;10.33;;;;;10.63;74.62;101799.25;5000383;27;45308;-78
2022/09/19 06:21:15;;;;;;;;;9.00;9.00;;;;;10.59;74.74;101809.31;5012425;27;45363;-79
2022/09/19 06:23:41;;;;;;;;;12.67;12.67;;;;;10.69;74.73;101811.09;5020828;27;45489;-78
2022/09/19 06:26:06;;;;;;;;;9.67;9.67;;;;;10.66;74.56;101814.91;5005448;27;48247;-78
2022/09/19 06:28:31;;;;;;;;;12.00;11.33;;;;;10.72;74.48;101816.94;5013824;27;45670;-78
2022/09/19 06:31:04;;;;;;;;;12.67;11.33;;;;;10.76;74.96;101821.97;5028719;27;45369;-78
2022/09/19 06:33:32;;;;;;;;;13.33;12.33;;;;;10.77;74.88;101824.47;5027389;27;45534;-78
2022/09/19 06:35:59;;;;;;;;;13.00;13.00;;;;;10.82;75.27;101829.34;5024571;27;45610;-80
2022/09/19 06:38:29;;;;;;;;;19.33;17.67;;;;;10.84;75.23;101824.72;5018058;27;45429;-80
2022/09/19 06:40:55;;;;;;;;;14.00;13.00;;;;;10.80;75.11;101818.00;5011853;27;45422;-81
2022/09/19 06:43:21;;;;;;;;;14.67;13.67;;;;;10.88;75.18;101828.75;5007236;27;46231;-80
2022/09/19 06:45:47;;;;;;;;;15.00;15.00;;;;;10.95;75.20;101843.13;5024009;27;46250;-81
2022/09/19 06:48:13;;;;;;;;;20.00;18.00;;;;;10.97;75.44;101840.31;5030877;27;45362;-81
2022/09/19 06:50:38;;;;;;;;;16.67;16.67;;;;;11.05;75.33;101843.03;5011510;27;45342;-81
2022/09/19 06:53:04;;;;;;;;;12.33;11.67;;;;;11.09;75.12;101848.91;5019683;27;45402;-80
2022/09/19 06:55:30;;;;;;;;;17.33;16.00;;;;;11.06;75.39;101835.91;5008847;27;48280;-80
2022/09/19 06:58:03;;;;;;;;;10.00;7.00;;;;;11.17;75.65;101848.16;5018199;27;45495;-81
2022/09/19 07:00:35;;;;;;;;;23.33;20.67;;;;;11.27;75.81;101856.91;5017633;27;45320;-81
2022/09/19 07:03:08;;;;;;;;;22.00;22.00;;;;;11.28;75.85;101842.63;5104558;27;46258;-81
2022/09/19 07:05:36;;;;;;;;;21.33;21.33;;;;;11.26;75.80;101839.28;5029043;27;45443;-80
2022/09/19 07:08:02;;;;;;;;;17.67;17.33;;;;;11.42;75.82;101859.03;5013851;27;45326;-81
2022/09/19 07:10:28;;;;;;;;;17.33;17.33;;;;;11.43;75.87;101853.56;5007240;27;45353;-83
2022/09/19 07:12:56;;;;;;;;;18.67;17.33;;;;;11.49;75.99;101850.28;5019465;28;46179;-83
2022/09/19 07:15:23;;;;;;;;;15.67;14.33;;;;;11.69;76.11;101863.44;5016078;27;47530;-84
2022/09/19 07:17:48;;;;;;;;;16.67;16.33;;;;;11.80;75.92;101865.03;5020115;28;45467;-85
2022/09/19 07:20:14;;;;;;;;;14.67;14.67;;;;;11.87;76.12;101857.25;5027375;27;45332;-84
2022/09/19 07:22:39;;;;;;;;;18.67;15.33;;;;;11.84;76.03;101841.56;5082298;27;45971;-84
2022/09/19 07:25:07;;;;;;;;;15.33;15.33;;;;;12.07;75.93;101865.94;5024177;28;46856;-84
2022/09/19 07:27:34;;;;;;;;;18.33;18.33;;;;;12.18;76.22;101878.13;5059351;28;45434;-85
2022/09/19 07:30:00;;;;;;;;;18.00;18.00;;;;;12.34;76.05;101876.56;5055336;28;45416;-84
2022/09/19 07:32:27;;;;;;;;;12.33;12.33;;;;;12.17;76.07;101835.66;5102966;27;45864;-84
2022/09/19 07:34:53;;;;;;;;;22.00;18.33;;;;;12.36;75.62;101850.56;5042118;27;47211;-84
2022/09/19 07:37:18;;;;;;;;;16.00;16.00;;;;;12.57;75.74;101866.19;5065413;27;46147;-85
2022/09/19 07:39:43;;;;;;;;;15.33;14.33;;;;;12.63;75.63;101860.19;5025081;28;45281;-86
2022/09/19 07:42:09;;;;;;;;;20.67;17.00;;;;;12.65;75.55;101852.03;5015024;28;46396;-82
2022/09/19 07:44:35;;;;;;;;;16.67;16.67;;;;;12.90;75.24;101875.31;5027194;27;45713;-81
2022/09/19 07:49:44;;;;;;;;;18.00;17.00;;;;;13.02;75.13;101866.00;5029541;28;45271;-82
2022/09/19 07:52:10;;;;;;;;;14.00;14.00;;;;;13.23;74.59;101886.09;5041732;28;45865;-84
2022/09/19 07:54:35;;;;;;;;;15.67;15.67;;;;;13.13;74.39;101859.50;5013123;28;47403;-82
2022/09/19 07:57:00;;;;;;;;;12.00;12.00;;;;;13.25;74.78;101874.22;5017144;28;45271;-81
2022/09/19 07:59:26;;;;;;;;;16.67;15.00;;;;;13.43;74.55;101880.41;5013418;28;45489;-83
2022/09/19 08:01:51;;;;;;;;;16.67;16.00;;;;;13.45;74.10;101879.28;5023748;27;47276;-86
2022/09/19 08:04:17;;;;;;;;;14.00;13.00;;;;;13.35;74.29;101854.56;5022154;28;47044;-88
2022/09/19 08:06:42;;;;;;;;;13.00;11.00;;;;;13.52;74.06;101859.94;5103022;27;45409;-82
2022/09/19 08:09:10;;;;;;;;;11.67;11.67;;;;;13.83;73.99;101897.50;5017657;28;45476;-83
2022/09/19 08:11:35;;;;;;;;;12.33;12.33;;;;;13.78;73.83;101873.13;5012980;28;47297;-84
2022/09/19 08:14:01;;;;;;;;;13.67;13.00;;;;;13.93;73.41;101883.13;5005416;28;47297;-83
2022/09/19 08:16:26;;;;;;;;;12.00;12.00;;;;;14.17;73.66;101906.31;5020716;27;45541;-76
2022/09/19 08:18:51;;;;;;;;;10.00;10.00;;;;;14.25;73.25;101906.28;5015632;27;45485;-79
2022/09/19 08:21:18;;;;;;;;;11.00;9.00;;;;;14.32;73.33;101908.28;5015821;27;56948;-78
2022/09/19 08:23:44;;;;;;;;;9.33;9.33;;;;;14.35;73.32;101903.44;5016736;27;46523;-78
2022/09/19 08:26:09;;;;;;;;;10.00;8.33;;;;;14.46;72.88;101909.44;5016894;28;45252;-79
2022/09/19 08:28:35;;;;;;;;;7.67;7.00;;;;;14.49;72.42;101907.22;5006839;28;45347;-79
2022/09/19 08:31:00;;;;;;;;;5.67;5.67;;;;;14.62;72.34;101908.53;5020331;28;45279;-80
2022/09/19 08:33:26;;;;;;;;;6.00;6.00;;;;;14.68;71.51;101905.19;5016411;28;46246;-79
2022/09/19 08:35:54;;;;;;;;;8.00;5.67;;;;;14.76;71.71;101910.50;4998714;28;45648;-79
2022/09/19 08:38:19;;;;;;;;;5.00;5.00;;;;;14.77;71.06;101901.47;4998866;28;45321;-79
2022/09/19 08:41:23;;;;;;;;;4.33;3.00;;;;;14.92;71.15;101915.97;4991607;28;45873;-79
2022/09/19 08:43:51;;;;;;;;;4.00;3.00;;;;;15.03;70.75;101918.28;5016440;28;45333;-79
2022/09/19 08:46:27;;;;;;;;;3.00;1.00;;;;;15.11;69.92;101914.69;4992720;27;45498;-79
2022/09/19 08:49:09;;;;;;;;;1.00;1.00;;;;;15.22;68.74;101913.47;5016369;27;45379;-79
2022/09/19 08:51:49;;;;;;;;;2.00;2.00;;;;;15.36;68.39;101917.25;5016220;27;45295;-79
2022/09/19 08:54:21;;;;;;;;;4.00;3.00;;;;;15.46;68.33;101912.50;5016180;27;45416;-77
2022/09/19 08:56:46;;;;;;;;;4.33;3.00;;;;;15.56;67.76;101919.47;5016568;27;45463;-78
2022/09/19 08:59:37;;;;;;;;;1.00;1.00;;;;;15.64;67.54;101914.88;5026054;27;45449;-79
2022/09/19 09:02:29;;;;;;;;;2.00;0.33;;;;;15.82;67.33;101924.44;5014478;27;46489;-80
2022/09/19 09:04:54;;;;;;;;;2.67;0.33;;;;;15.91;66.22;101919.84;4984182;27;45722;-79
2022/09/19 09:07:38;;;;;;;;;0.00;0.00;;;;;16.03;65.58;101926.47;5005511;27;45854;-79
2022/09/19 09:10:33;;;;;;;;;0.00;0.00;;;;;16.19;63.35;101919.28;5014849;27;45489;-79
2022/09/19 09:13:05;;;;;;;;;0.00;0.00;;;;;16.26;63.34;101928.25;5017182;27;45342;-78
2022/09/19 09:16:02;;;;;;;;;0.00;0.00;;;;;16.35;63.34;101912.09;5019135;27;48113;-80
2022/09/19 09:18:56;;;;;;;;;0.00;0.00;;;;;16.43;62.90;101925.41;5098856;27;45976;-80
2022/09/19 09:21:59;;;;;;;;;2.00;0.00;;;;;16.53;62.65;101925.13;5012035;27;45382;-78
2022/09/19 09:24:31;;;;;;;;;4.00;0.00;;;;;16.56;62.42;101916.72;5064822;27;47168;-79
2022/09/19 09:26:59;;;;;;;;;1.00;0.00;;;;;16.63;61.93;101916.78;5012270;27;47418;-78
2022/09/19 09:29:32;;;;;;;;;0.00;0.00;;;;;16.60;61.33;101917.16;5032466;27;45220;-79
2022/09/19 09:32:31;;;;;;;;;0.00;0.00;;;;;16.52;60.53;101910.03;5019114;27;45291;-79
2022/09/19 09:35:18;;;;;;;;;0.00;0.00;;;;;16.53;61.00;101920.59;5018608;27;45365;-78
2022/09/19 09:38:24;;;;;;;;;0.00;0.00;;;;;16.53;61.02;101915.22;5018298;27;45691;-79
2022/09/19 09:44:13;;;;;;;;;0.00;0.00;;;;;16.62;60.35;101901.72;5018753;27;45359;-78
2022/09/19 09:46:53;;;;;;;;;0.00;0.00;;;;;16.84;60.31;101917.88;5037034;27;45482;-76
2022/09/19 09:49:27;;;;;;;;;0.00;0.00;;;;;16.96;60.18;101902.97;5017067;27;47518;-76
2022/09/19 09:52:04;;;;;;;;;0.00;0.00;;;;;17.04;59.36;101918.13;5018822;27;45310;-76
2022/09/19 09:57:32;;;;;;;;;0.00;0.00;;;;;17.10;58.54;101905.81;5018454;27;45496;-76
2022/09/19 10:05:51;;;;;;;;;0.00;0.00;;;;;17.27;57.46;101907.25;5018607;27;45345;-76
2022/09/19 10:09:02;;;;;;;;;0.00;0.00;;;;;17.34;57.96;101912.72;5011918;27;47559;-75
2022/09/19 10:11:56;;;;;;;;;0.00;0.00;;;;;17.36;57.58;101909.84;5003195;28;45410;-78
2022/09/19 10:14:25;;;;;;;;;1.00;0.00;;;;;17.40;57.73;101911.09;5018464;27;45392;-76
2022/09/19 10:16:56;;;;;;;;;0.00;0.00;;;;;17.57;56.47;101905.47;5025405;27;45337;-77
2022/09/19 10:19:38;;;;;;;;;0.00;0.00;;;;;17.85;56.33;101907.34;5016557;27;45459;-78
2022/09/19 10:22:07;;;;;;;;;3.67;3.33;;;;;18.09;55.62;101898.03;5103926;27;48304;-77
2022/09/19 10:24:42;;;;;;;;;0.00;0.00;;;;;18.39;55.24;101899.69;5017830;27;45294;-76
2022/09/19 10:27:22;;;;;;;;;0.00;0.00;;;;;18.63;54.17;101894.84;5014140;27;45560;-77
2022/09/19 10:29:59;;;;;;;;;0.00;0.00;;;;;18.84;53.62;101888.50;5018211;27;45359;-78
2022/09/19 10:32:38;;;;;;;;;0.00;0.00;;;;;19.02;53.46;101895.19;5018048;27;45327;-77
2022/09/19 10:35:26;;;;;;;;;1.00;0.00;;;;;18.97;53.22;101897.66;5007592;27;45344;-78
2022/09/19 10:38:00;;;;;;;;;1.00;0.00;;;;;18.71;52.53;101893.84;5021304;27;45298;-78
2022/09/19 10:40:28;;;;;;;;;0.00;0.00;;;;;18.59;52.40;101891.72;5009947;27;47100;-78
2022/09/19 10:42:55;;;;;;;;;0.67;0.00;;;;;18.31;51.34;101883.72;5018065;27;47163;-78
2022/09/19 10:45:47;;;;;;;;;1.00;0.00;;;;;18.28;50.87;101895.69;5021504;27;45560;-81
2022/09/19 10:48:26;;;;;;;;;0.00;0.00;;;;;18.25;52.17;101888.84;5021007;27;45393;-78
2022/09/19 10:50:52;;;;;;;;;0.00;0.00;;;;;18.35;52.40;101884.97;5017741;27;45300;-79
2022/09/19 10:53:32;;;;;;;;;0.00;0.00;;;;;18.56;52.73;101886.75;5017707;27;46362;-78
2022/09/19 10:56:04;;;;;;;;;1.00;0.00;;;;;18.75;50.31;101890.53;5038514;27;45495;-78
2022/09/19 10:58:35;;;;;;;;;0.00;0.00;;;;;18.94;50.61;101888.09;5017795;27;45313;-78
2022/09/19 11:01:03;;;;;;;;;0.00;0.00;;;;;19.08;50.64;101877.41;5021618;27;45483;-77
2022/09/19 11:03:30;;;;;;;;;0.00;0.00;;;;;19.13;51.25;101883.03;5027396;27;45408;-79
2022/09/19 11:06:05;;;;;;;;;0.33;0.33;;;;;19.13;50.97;101891.91;5017516;27;45357;-79
2022/09/19 11:08:43;;;;;;;;;0.00;0.00;;;;;19.05;50.19;101871.38;5017736;28;45288;-78
2022/09/19 11:11:40;;;;;;;;;0.00;0.00;;;;;19.09;50.17;101887.16;5013457;27;46265;-77
2022/09/19 11:14:18;;;;;;;;;0.33;0.00;;;;;19.12;50.44;101884.03;5012910;27;48065;-78
2022/09/19 11:17:03;;;;;;;;;0.33;0.33;;;;;19.27;50.17;101875.78;5045950;27;45384;-78
2022/09/19 11:19:53;;;;;;;;;0.00;0.00;;;;;19.43;50.08;101878.06;5030252;27;45321;-78
2022/09/19 11:22:29;;;;;;;;;0.00;0.00;;;;;19.55;49.38;101878.28;5016097;27;46357;-79
2022/09/19 11:25:27;;;;;;;;;0.00;0.00;;;;;19.61;49.07;101871.25;5017416;27;46539;-78
2022/09/19 11:28:14;;;;;;;;;0.33;0.33;;;;;19.79;49.40;101876.00;4999812;27;45570;-80
2022/09/19 11:31:08;;;;;;;;;2.67;1.33;;;;;19.90;49.35;101869.16;5025588;27;45476;-79
2022/09/19 11:33:46;;;;;;;;;1.00;0.00;;;;;19.93;48.40;101875.97;5017211;27;45279;-78
2022/09/19 11:36:26;;;;;;;;;1.33;0.33;;;;;19.89;48.41;101874.75;5016033;27;45491;-78
2022/09/19 11:39:09;;;;;;;;;0.00;0.00;;;;;20.01;48.82;101873.13;5072128;27;45395;-78
2022/09/19 11:42:10;;;;;;;;;0.67;0.67;;;;;20.25;48.51;101878.03;5035080;27;45323;-79
2022/09/19 11:44:39;;;;;;;;;0.00;0.00;;;;;20.53;48.02;101880.44;5016968;27;45524;-81
2022/09/19 11:47:12;;;;;;;;;1.00;0.00;;;;;20.75;46.41;101880.16;5017055;27;45519;-78
2022/09/19 11:50:12;;;;;;;;;0.00;0.00;;;;;20.92;45.47;101874.28;5012222;27;45428;-77
2022/09/19 11:53:03;;;;;;;;;0.33;0.33;;;;;21.12;45.80;101863.34;5027035;27;45371;-78
2022/09/19 11:59:21;;;;;;;;;1.67;1.67;;;;;21.40;44.42;101864.78;5019175;27;45521;-85
2022/09/19 12:01:52;;;;;;;;;3.00;3.00;;;;;21.27;45.10;101863.03;5012286;28;45355;-85
2022/09/19 12:04:53;;;;;;;;;2.33;1.67;;;;;21.01;45.34;101848.63;5007376;27;45331;-81
2022/09/19 12:07:30;;;;;;;;;4.00;0.00;;;;;20.94;44.55;101862.19;5018482;28;46391;-82
2022/09/19 12:10:01;;;;;;;;;0.00;0.00;;;;;20.84;44.70;101858.28;5014533;27;47088;-80